Time;durP1;ratioP1;P1;durP2;ratioP2;P2;SDS_P1;SDS_P2;PMS_P1;PMS_P2;Temp;Humidity;BMP_temperature;BMP_pressure;BME280_temperature;BME280_humidity;BME280_pressure;Samples;Min_cycle;Max_cycle;Signal;HPM_P1;HPM_P2
2022/01/15 00:01:16;;;;;;;10.55;7.97;;;7.00;99.90;;;;;;5082444;28;20074;-74
2022/01/15 00:03:41;;;;;;;13.07;7.32;;;7.00;99.90;;;;;;5081110;28;20040;-74
2022/01/15 00:06:07;;;;;;;9.43;7.68;;;7.00;99.90;;;;;;5086558;28;20063;-74
2022/01/15 00:08:33;;;;;;;11.50;8.02;;;7.00;99.90;;;;;;5082808;28;20047;-74
2022/01/15 00:10:59;;;;;;;11.77;7.65;;;6.90;99.90;;;;;;5086292;28;20080;-74
2022/01/15 00:13:28;;;;;;;12.23;7.85;;;7.00;99.90;;;;;;5088622;28;20040;-74
2022/01/15 00:16:09;;;;;;;10.95;7.55;;;6.90;99.90;;;;;;5085163;28;20040;-74
2022/01/15 00:18:44;;;;;;;11.43;7.55;;;6.90;99.90;;;;;;5077424;28;20076;-74
2022/01/15 00:21:11;;;;;;;11.38;7.15;;;6.90;99.90;;;;;;5118563;27;20126;-74
2022/01/15 00:23:37;;;;;;;11.77;6.57;;;6.90;99.90;;;;;;5122116;27;20049;-74
2022/01/15 00:26:03;;;;;;;12.30;7.75;;;6.90;99.90;;;;;;5085234;28;20035;-74
2022/01/15 00:28:28;;;;;;;10.98;7.65;;;6.90;99.90;;;;;;5113908;27;20367;-74
2022/01/15 00:30:54;;;;;;;20.05;9.15;;;6.90;99.90;;;;;;5082604;28;20502;-74
2022/01/15 00:33:20;;;;;;;15.85;8.48;;;6.80;99.90;;;;;;5081305;28;20094;-73
2022/01/15 00:35:45;;;;;;;11.52;7.68;;;6.80;99.90;;;;;;5085275;28;20054;-74
2022/01/15 00:38:11;;;;;;;11.70;7.57;;;6.70;99.90;;;;;;5080927;28;20491;-74
2022/01/15 00:40:37;;;;;;;12.98;7.65;;;6.70;99.90;;;;;;5085706;28;20040;-74
2022/01/15 00:43:02;;;;;;;12.43;7.40;;;6.70;99.90;;;;;;5084277;28;20048;-74
2022/01/15 00:45:32;;;;;;;11.05;7.93;;;6.80;99.90;;;;;;5080197;28;20036;-74
2022/01/15 00:47:58;;;;;;;10.20;7.45;;;6.70;99.90;;;;;;5081238;28;20048;-74
2022/01/15 00:50:24;;;;;;;11.18;7.25;;;6.70;99.90;;;;;;5079231;28;20436;-74
2022/01/15 00:52:50;;;;;;;11.45;7.20;;;6.80;99.90;;;;;;5085879;28;20044;-74
2022/01/15 00:55:19;;;;;;;11.50;6.90;;;6.70;99.90;;;;;;5082162;28;20040;-74
2022/01/15 00:57:45;;;;;;;17.80;7.85;;;6.70;99.90;;;;;;5082914;28;20044;-74
2022/01/15 01:00:15;;;;;;;12.18;7.57;;;6.80;99.90;;;;;;5099861;27;20042;-74
2022/01/15 01:02:40;;;;;;;11.40;7.15;;;6.80;99.90;;;;;;5083587;28;20138;-74
2022/01/15 01:05:07;;;;;;;11.10;8.10;;;6.80;99.90;;;;;;5082765;28;20036;-74
2022/01/15 01:07:32;;;;;;;14.52;7.97;;;6.80;99.90;;;;;;5079297;28;20372;-74
2022/01/15 01:23:02;;;;;;;10.35;7.30;;;6.70;99.90;;;;;;5077150;28;20056;-74
2022/01/15 01:25:35;;;;;;;12.48;8.13;;;6.70;99.90;;;;;;5084942;28;20649;-74
2022/01/15 01:28:08;;;;;;;13.05;7.97;;;6.70;99.90;;;;;;5084481;28;20052;-74
2022/01/15 01:30:42;;;;;;;13.15;8.65;;;6.70;99.90;;;;;;5084404;28;20064;-74
2022/01/15 01:36:06;;;;;;;13.02;8.23;;;6.70;99.90;;;;;;5081523;28;20055;-74
2022/01/15 01:38:38;;;;;;;12.90;8.85;;;6.70;99.90;;;;;;5082212;28;20044;-74
2022/01/15 01:41:06;;;;;;;14.60;9.07;;;6.70;99.90;;;;;;5080944;28;20036;-74
2022/01/15 01:46:29;;;;;;;16.10;9.52;;;6.70;99.90;;;;;;5114635;27;20043;-74
2022/01/15 01:48:56;;;;;;;17.63;9.93;;;6.70;99.90;;;;;;5082142;28;20036;-74
2022/01/15 01:51:39;;;;;;;16.05;8.23;;;6.70;99.90;;;;;;5085224;28;20105;-74
2022/01/15 01:54:07;;;;;;;12.40;8.30;;;6.70;99.90;;;;;;5113031;27;20075;-74
2022/01/15 01:56:33;;;;;;;14.32;9.27;;;6.70;99.90;;;;;;5117437;27;20059;-74
2022/01/15 01:59:00;;;;;;;13.13;8.95;;;6.70;99.90;;;;;;5075364;28;20059;-74
2022/01/15 02:01:26;;;;;;;14.27;9.20;;;6.80;99.90;;;;;;5083952;28;20070;-74
2022/01/15 02:03:52;;;;;;;19.67;9.63;;;6.70;99.90;;;;;;5083620;28;20119;-74
2022/01/15 02:06:18;;;;;;;14.15;9.48;;;6.70;99.90;;;;;;5083834;28;20341;-74
2022/01/15 02:08:44;;;;;;;13.05;9.32;;;6.80;99.90;;;;;;5079978;28;20024;-74
2022/01/15 02:11:10;;;;;;;12.73;9.48;;;6.70;99.90;;;;;;5086071;28;20077;-74
2022/01/15 02:13:41;;;;;;;13.45;10.10;;;6.70;99.90;;;;;;5113511;27;20040;-74
2022/01/15 02:16:07;;;;;;;14.85;9.57;;;6.70;99.90;;;;;;5112292;27;20048;-74
2022/01/15 02:18:36;;;;;;;17.00;9.55;;;6.70;99.90;;;;;;5083322;28;20051;-74
2022/01/15 02:23:44;;;;;;;12.30;8.40;;;6.70;99.90;;;;;;5086156;28;20052;-74
2022/01/15 02:26:23;;;;;;;16.73;9.82;;;6.70;99.90;;;;;;5087856;28;20071;-74
2022/01/15 02:28:58;;;;;;;14.50;9.13;;;6.70;99.90;;;;;;5086999;28;20047;-74
2022/01/15 02:31:24;;;;;;;15.27;8.37;;;6.60;99.90;;;;;;5087180;28;20048;-74
2022/01/15 02:33:52;;;;;;;13.77;8.82;;;6.60;99.90;;;;;;5083885;28;20138;-74
2022/01/15 02:36:24;;;;;;;14.45;8.75;;;6.60;99.90;;;;;;5084953;28;20047;-74
2022/01/15 02:38:50;;;;;;;12.32;8.73;;;6.70;99.90;;;;;;5087234;28;20056;-74
2022/01/15 02:41:29;;;;;;;14.63;8.95;;;6.60;99.90;;;;;;5106057;27;20036;-73
2022/01/15 02:43:56;;;;;;;11.50;7.70;;;6.60;99.90;;;;;;5083091;28;20053;-74
2022/01/15 02:48:55;;;;;;;11.18;8.05;;;6.60;99.90;;;;;;5086149;28;20082;-74
2022/01/15 02:51:25;;;;;;;13.23;8.40;;;6.60;99.90;;;;;;5085615;28;20088;-74
2022/01/15 02:53:57;;;;;;;11.60;7.07;;;6.60;99.90;;;;;;5084083;28;20070;-74
2022/01/15 02:56:24;;;;;;;12.55;7.60;;;6.70;99.90;;;;;;5084152;28;20047;-74
2022/01/15 02:58:50;;;;;;;12.73;8.00;;;6.70;99.90;;;;;;5087354;28;20410;-74
2022/01/15 03:01:16;;;;;;;11.82;7.00;;;6.60;99.90;;;;;;5086881;28;20044;-74
2022/01/15 03:03:42;;;;;;;5.03;4.18;;;6.60;99.90;;;;;;5083409;28;20115;-74
2022/01/15 03:06:12;;;;;;;4.60;3.63;;;6.60;99.90;;;;;;5086421;28;20031;-74
2022/01/15 03:08:39;;;;;;;6.60;4.88;;;6.60;99.90;;;;;;5115940;27;20032;-74
2022/01/15 03:11:06;;;;;;;9.73;6.68;;;6.60;99.90;;;;;;5081997;28;20550;-74
2022/01/15 03:13:32;;;;;;;6.32;5.30;;;6.60;99.90;;;;;;5089194;28;20079;-74
2022/01/15 03:15:58;;;;;;;11.10;6.18;;;6.60;99.90;;;;;;5116356;27;20071;-73
2022/01/15 03:18:23;;;;;;;10.02;7.57;;;6.60;99.90;;;;;;5086195;28;20075;-74
2022/01/15 03:20:49;;;;;;;10.02;6.40;;;6.60;99.90;;;;;;5082851;28;20048;-74
2022/01/15 03:23:15;;;;;;;9.70;6.82;;;6.60;99.90;;;;;;5089606;28;20041;-74
2022/01/15 03:25:40;;;;;;;9.68;7.00;;;6.60;99.90;;;;;;5084155;28;20036;-74
2022/01/15 03:28:06;;;;;;;10.68;6.57;;;6.60;99.90;;;;;;5083925;28;20032;-74
2022/01/15 03:30:32;;;;;;;12.50;7.18;;;6.60;99.90;;;;;;5087639;28;20039;-74
2022/01/15 03:32:58;;;;;;;11.40;7.45;;;6.60;99.90;;;;;;5086277;28;20110;-74
2022/01/15 03:35:23;;;;;;;12.13;6.70;;;6.60;99.90;;;;;;5088779;28;20040;-74
2022/01/15 03:37:49;;;;;;;6.72;4.13;;;6.60;99.90;;;;;;5086817;28;20044;-74
2022/01/15 03:40:15;;;;;;;3.38;2.80;;;6.60;99.90;;;;;;5084145;28;20090;-74
2022/01/15 03:42:41;;;;;;;4.82;3.35;;;6.50;99.90;;;;;;5087241;28;20036;-74
2022/01/15 03:45:07;;;;;;;5.13;3.40;;;6.50;99.90;;;;;;5083808;28;20983;-74
2022/01/15 03:47:33;;;;;;;7.07;4.57;;;6.50;99.90;;;;;;5083265;28;20119;-74
2022/01/15 03:49:58;;;;;;;6.93;5.15;;;6.60;99.90;;;;;;5084553;28;20593;-74
2022/01/15 03:52:24;;;;;;;7.40;5.20;;;6.50;99.90;;;;;;5087342;28;20051;-74
2022/01/15 03:54:50;;;;;;;7.65;5.85;;;6.50;99.90;;;;;;5086498;28;20036;-74
2022/01/15 03:57:15;;;;;;;7.20;5.57;;;6.50;99.90;;;;;;5081188;28;20627;-74
2022/01/15 03:59:41;;;;;;;8.70;4.53;;;6.60;99.90;;;;;;5084512;28;20068;-74
2022/01/15 04:02:08;;;;;;;7.18;4.57;;;6.50;99.90;;;;;;5085224;28;20040;-74
2022/01/15 04:04:33;;;;;;;7.28;5.13;;;6.60;99.90;;;;;;5087492;28;20039;-74
2022/01/15 04:07:00;;;;;;;6.07;4.28;;;6.60;99.90;;;;;;5081198;28;20043;-74
2022/01/15 04:09:25;;;;;;;6.95;4.45;;;6.60;99.90;;;;;;5084006;28;20063;-74
2022/01/15 04:11:51;;;;;;;6.72;4.65;;;6.60;99.90;;;;;;5084588;28;20040;-74
2022/01/15 04:14:16;;;;;;;6.88;4.68;;;6.60;99.90;;;;;;5118314;27;20035;-74
2022/01/15 04:16:42;;;;;;;6.93;5.00;;;6.50;99.90;;;;;;5080462;28;20039;-74
2022/01/15 04:19:08;;;;;;;7.95;5.38;;;6.50;99.90;;;;;;5101357;27;20044;-74
2022/01/15 04:21:35;;;;;;;6.35;4.72;;;6.50;99.90;;;;;;5082299;28;20051;-74
2022/01/15 04:24:02;;;;;;;7.45;5.18;;;6.50;99.90;;;;;;5073258;28;20046;-74
2022/01/15 04:26:28;;;;;;;8.38;4.80;;;6.50;99.90;;;;;;5081593;28;20047;-74
2022/01/15 04:28:55;;;;;;;8.13;5.40;;;6.50;99.90;;;;;;5080986;28;20048;-74
2022/01/15 04:31:21;;;;;;;8.00;5.30;;;6.50;99.90;;;;;;5090401;28;20093;-74
2022/01/15 04:33:47;;;;;;;7.40;4.60;;;6.50;99.90;;;;;;5085195;28;20483;-74
2022/01/15 04:36:13;;;;;;;7.78;5.00;;;6.50;99.90;;;;;;5085565;28;20093;-74
2022/01/15 04:38:40;;;;;;;9.10;4.75;;;6.50;99.90;;;;;;5085342;28;20035;-74
2022/01/15 04:41:06;;;;;;;6.45;4.57;;;6.50;99.90;;;;;;5085364;28;20502;-74
2022/01/15 04:43:32;;;;;;;7.57;5.22;;;6.40;99.90;;;;;;5109382;27;20032;-74
2022/01/15 04:45:58;;;;;;;8.48;4.78;;;6.40;99.90;;;;;;5082699;28;20048;-74
2022/01/15 04:48:24;;;;;;;6.97;4.05;;;6.50;99.90;;;;;;5083150;28;20044;-74
2022/01/15 04:50:49;;;;;;;9.05;4.57;;;6.40;99.90;;;;;;5082225;28;20044;-74
2022/01/15 04:53:15;;;;;;;7.47;4.43;;;6.40;99.90;;;;;;5078367;28;20048;-74
2022/01/15 04:55:41;;;;;;;7.80;4.63;;;6.40;99.90;;;;;;5113741;27;20036;-73
2022/01/15 04:58:07;;;;;;;6.72;4.70;;;6.40;99.90;;;;;;5083388;28;20372;-73
2022/01/15 05:00:34;;;;;;;6.82;4.15;;;6.40;99.90;;;;;;5081373;28;20441;-73
2022/01/15 05:03:00;;;;;;;8.13;4.65;;;6.40;99.90;;;;;;5082430;28;20039;-74
2022/01/15 05:05:27;;;;;;;6.47;4.65;;;6.40;99.90;;;;;;5085859;28;20064;-73
2022/01/15 05:07:53;;;;;;;7.10;4.70;;;6.40;99.90;;;;;;5079974;28;20036;-73
2022/01/15 05:10:23;;;;;;;5.53;4.40;;;6.40;99.90;;;;;;5079734;28;20028;-73
2022/01/15 05:12:49;;;;;;;7.63;4.75;;;6.40;99.90;;;;;;5116249;27;20589;-73
2022/01/15 05:15:18;;;;;;;8.93;5.35;;;6.40;99.90;;;;;;5083873;28;20043;-73
2022/01/15 05:17:45;;;;;;;7.38;5.07;;;6.40;99.90;;;;;;5083102;28;20051;-73
2022/01/15 05:20:16;;;;;;;9.27;5.32;;;6.40;99.90;;;;;;5110610;27;20044;-73
2022/01/15 05:22:42;;;;;;;8.23;5.20;;;6.40;99.90;;;;;;5082782;28;20208;-73
2022/01/15 05:25:08;;;;;;;9.82;5.22;;;6.40;99.90;;;;;;5083458;28;20086;-73
2022/01/15 05:27:36;;;;;;;7.47;5.25;;;6.40;99.90;;;;;;5078874;28;20458;-73
2022/01/15 05:30:04;;;;;;;7.28;4.88;;;6.40;99.90;;;;;;5085866;28;20041;-73
2022/01/15 05:32:29;;;;;;;8.40;4.45;;;6.30;99.90;;;;;;5083559;28;20048;-73
2022/01/15 05:34:57;;;;;;;7.30;5.15;;;6.30;99.90;;;;;;5082060;28;20074;-73
2022/01/15 05:37:23;;;;;;;7.68;4.75;;;6.30;99.90;;;;;;5113820;27;20079;-73
2022/01/15 05:39:49;;;;;;;7.63;4.47;;;6.30;99.90;;;;;;5079292;28;20040;-73
2022/01/15 05:42:14;;;;;;;6.53;4.65;;;6.30;99.90;;;;;;5083612;28;20550;-73
2022/01/15 05:44:40;;;;;;;5.85;4.57;;;6.30;99.90;;;;;;5082508;28;20040;-74
2022/01/15 05:47:06;;;;;;;7.97;4.32;;;6.30;99.90;;;;;;5080249;28;20342;-73
2022/01/15 05:49:31;;;;;;;6.38;4.38;;;6.30;99.90;;;;;;5081074;28;20467;-73
2022/01/15 05:51:57;;;;;;;7.82;4.80;;;6.30;99.90;;;;;;5083905;28;20036;-73
2022/01/15 05:54:22;;;;;;;6.35;4.40;;;6.30;99.90;;;;;;5097465;28;20038;-73
2022/01/15 05:56:48;;;;;;;5.82;4.28;;;6.30;99.90;;;;;;5080408;28;20038;-73
2022/01/15 05:59:13;;;;;;;7.72;4.30;;;6.30;99.90;;;;;;5080979;28;20039;-73
2022/01/15 06:01:39;;;;;;;7.68;5.03;;;6.30;99.90;;;;;;5120450;27;20460;-73
2022/01/15 06:04:05;;;;;;;7.57;5.18;;;6.20;99.90;;;;;;5116837;27;20121;-73
2022/01/15 06:06:31;;;;;;;6.68;4.70;;;6.30;99.90;;;;;;5083087;28;20064;-73
2022/01/15 06:08:56;;;;;;;6.35;4.82;;;6.20;99.90;;;;;;5085580;28;20032;-73
2022/01/15 06:11:23;;;;;;;5.88;4.10;;;6.20;99.90;;;;;;5082907;28;20035;-73
2022/01/15 06:13:50;;;;;;;6.78;4.15;;;6.20;99.90;;;;;;5080803;28;20052;-73
2022/01/15 06:16:16;;;;;;;6.50;4.50;;;6.20;99.90;;;;;;5086335;28;20069;-74
2022/01/15 06:18:42;;;;;;;4.13;3.72;;;6.10;99.90;;;;;;5118593;27;20117;-73
2022/01/15 06:21:07;;;;;;;7.78;4.30;;;6.20;99.90;;;;;;5082880;28;20051;-73
2022/01/15 06:23:33;;;;;;;5.32;3.90;;;6.10;99.90;;;;;;5084714;28;20040;-73
2022/01/15 06:25:59;;;;;;;5.15;4.00;;;6.20;99.90;;;;;;5083231;28;20492;-73
2022/01/15 06:28:25;;;;;;;8.20;4.50;;;6.10;99.90;;;;;;5087564;28;20044;-73
2022/01/15 06:30:51;;;;;;;5.43;4.45;;;6.10;99.90;;;;;;5085950;28;20040;-73
2022/01/15 06:33:17;;;;;;;5.50;4.55;;;6.10;99.90;;;;;;5083185;28;20134;-73
2022/01/15 06:35:42;;;;;;;7.95;5.13;;;6.00;99.90;;;;;;5084669;28;20047;-73
2022/01/15 06:38:08;;;;;;;8.65;5.43;;;6.00;99.90;;;;;;5079511;28;20036;-73
2022/01/15 06:40:34;;;;;;;8.13;5.43;;;6.00;99.90;;;;;;5081896;28;20047;-73
2022/01/15 06:43:01;;;;;;;7.28;5.53;;;6.00;99.90;;;;;;5098214;27;20186;-73
2022/01/15 06:45:27;;;;;;;7.93;4.93;;;6.10;99.90;;;;;;5080891;28;20036;-73
2022/01/15 06:47:53;;;;;;;7.07;5.00;;;6.00;99.90;;;;;;5088038;28;20058;-73
2022/01/15 06:50:20;;;;;;;7.55;5.53;;;6.00;99.90;;;;;;5082549;28;20146;-73
2022/01/15 06:52:45;;;;;;;6.32;5.00;;;6.00;99.90;;;;;;5082378;28;20051;-73
2022/01/15 06:55:11;;;;;;;7.38;5.47;;;6.00;99.90;;;;;;5082531;28;20035;-73
2022/01/15 06:57:37;;;;;;;6.72;4.68;;;6.00;99.90;;;;;;5082605;28;20391;-73
2022/01/15 07:00:05;;;;;;;5.18;4.22;;;6.00;99.90;;;;;;5084587;28;20041;-74
2022/01/15 07:02:31;;;;;;;8.20;5.10;;;6.00;99.90;;;;;;5071208;28;20128;-73
2022/01/15 07:04:57;;;;;;;6.65;4.85;;;6.00;99.90;;;;;;5079329;28;20083;-73
2022/01/15 07:07:23;;;;;;;6.30;5.18;;;5.90;99.90;;;;;;5084557;28;20094;-73
2022/01/15 07:09:48;;;;;;;8.95;5.32;;;5.90;99.90;;;;;;5081828;28;20051;-73
2022/01/15 07:12:14;;;;;;;7.45;5.13;;;5.90;99.90;;;;;;5086793;28;20174;-73
2022/01/15 07:14:40;;;;;;;7.43;4.90;;;5.80;99.90;;;;;;5082970;28;20131;-73
2022/01/15 07:17:05;;;;;;;7.43;5.55;;;5.80;99.90;;;;;;5082872;28;20402;-73
2022/01/15 07:19:31;;;;;;;9.18;6.35;;;5.80;99.90;;;;;;5082408;28;20488;-73
2022/01/15 07:21:57;;;;;;;8.40;6.05;;;5.80;99.90;;;;;;5083137;28;20040;-73
2022/01/15 07:24:23;;;;;;;8.88;6.18;;;5.80;99.90;;;;;;5081685;28;20043;-73
2022/01/15 07:26:49;;;;;;;8.30;5.70;;;5.80;99.90;;;;;;5079424;28;20403;-73
2022/01/15 07:29:16;;;;;;;8.55;5.53;;;5.70;99.90;;;;;;5081666;28;20044;-74
2022/01/15 07:31:47;;;;;;;8.65;5.88;;;5.80;99.90;;;;;;5076184;28;20035;-73
2022/01/15 07:34:14;;;;;;;8.60;5.72;;;5.80;99.90;;;;;;5114802;27;20040;-74
2022/01/15 07:36:40;;;;;;;11.57;7.00;;;5.80;99.90;;;;;;5082400;28;20448;-74
2022/01/15 07:39:07;;;;;;;7.97;5.78;;;5.80;99.90;;;;;;5097361;28;20036;-74
2022/01/15 07:41:33;;;;;;;7.18;5.35;;;5.80;99.90;;;;;;5114083;27;20571;-74
2022/01/15 07:43:59;;;;;;;7.53;4.97;;;5.80;99.90;;;;;;5081191;28;20044;-74
2022/01/15 07:46:25;;;;;;;8.35;5.93;;;5.80;99.90;;;;;;5084261;28;20415;-74
2022/01/15 07:48:51;;;;;;;7.43;5.65;;;5.80;99.90;;;;;;5083264;28;20028;-74
2022/01/15 07:51:17;;;;;;;6.50;5.13;;;5.80;99.90;;;;;;5079782;28;20040;-74
2022/01/15 07:53:43;;;;;;;7.78;5.65;;;5.80;99.90;;;;;;5088060;28;20097;-74
2022/01/15 07:56:09;;;;;;;7.78;5.90;;;5.70;99.90;;;;;;5080244;28;20044;-74
2022/01/15 07:58:35;;;;;;;10.02;6.68;;;5.70;99.90;;;;;;5082258;28;20076;-75
2022/01/15 08:01:00;;;;;;;9.50;6.13;;;5.70;99.90;;;;;;5084171;28;20403;-75
2022/01/15 08:03:26;;;;;;;9.32;6.82;;;5.70;99.90;;;;;;5076103;28;20510;-75
2022/01/15 08:05:52;;;;;;;9.73;6.70;;;5.70;99.90;;;;;;5081965;28;20040;-75
2022/01/15 08:08:18;;;;;;;11.27;7.05;;;5.70;99.90;;;;;;5081505;28;20028;-76
2022/01/15 08:10:44;;;;;;;9.43;7.22;;;5.70;99.90;;;;;;5088963;28;20028;-75
2022/01/15 08:13:10;;;;;;;10.20;7.40;;;5.70;99.90;;;;;;5080248;28;20155;-75
2022/01/15 08:15:36;;;;;;;9.63;7.50;;;5.70;99.90;;;;;;5082181;28;20119;-75
2022/01/15 08:18:02;;;;;;;10.85;7.63;;;5.70;99.90;;;;;;5080862;28;20394;-75
2022/01/15 08:20:29;;;;;;;8.15;6.88;;;5.70;99.90;;;;;;5081810;28;20044;-75
2022/01/15 08:22:54;;;;;;;10.85;7.28;;;5.80;99.90;;;;;;5081077;28;20040;-75
2022/01/15 08:25:22;;;;;;;9.88;6.60;;;5.70;99.90;;;;;;5087854;28;20040;-75
2022/01/15 08:27:48;;;;;;;9.75;7.47;;;5.70;99.90;;;;;;5113928;27;20163;-75
2022/01/15 08:30:14;;;;;;;11.82;7.40;;;5.70;99.90;;;;;;5087798;28;20037;-75
2022/01/15 08:32:41;;;;;;;10.40;7.82;;;5.60;99.90;;;;;;5084158;28;20036;-75
2022/01/15 08:35:08;;;;;;;11.23;7.25;;;5.70;99.90;;;;;;5082160;28;20071;-75
2022/01/15 08:37:37;;;;;;;11.95;8.15;;;5.70;99.90;;;;;;5085044;28;20143;-75
2022/01/15 08:40:04;;;;;;;10.05;7.38;;;5.60;99.90;;;;;;5086810;28;20040;-74
2022/01/15 08:42:29;;;;;;;9.35;6.70;;;5.60;99.90;;;;;;5082558;28;20047;-71
2022/01/15 08:44:55;;;;;;;10.20;7.68;;;5.60;99.90;;;;;;5083036;28;20044;-75
2022/01/15 08:47:21;;;;;;;11.52;7.43;;;5.60;99.90;;;;;;5060851;28;20043;-75
2022/01/15 08:49:46;;;;;;;10.60;7.25;;;5.60;99.90;;;;;;5082891;28;20036;-75
2022/01/15 08:52:13;;;;;;;10.25;7.07;;;5.60;99.90;;;;;;5081382;28;20024;-75
2022/01/15 08:54:39;;;;;;;13.77;8.38;;;5.60;99.90;;;;;;5090209;28;20575;-74
2022/01/15 08:57:04;;;;;;;12.68;8.25;;;5.60;99.90;;;;;;5081426;28;20039;-75
2022/01/15 08:59:30;;;;;;;13.30;8.82;;;5.60;99.90;;;;;;5085156;28;20031;-74
2022/01/15 09:01:58;;;;;;;12.63;9.23;;;5.60;99.90;;;;;;5083060;28;20029;-74
2022/01/15 09:04:24;;;;;;;11.18;7.93;;;5.60;99.90;;;;;;5083853;28;20398;-74
2022/01/15 09:06:50;;;;;;;13.60;9.73;;;5.60;99.90;;;;;;5080746;28;20126;-74
2022/01/15 09:09:16;;;;;;;14.65;9.65;;;5.60;99.90;;;;;;5079689;28;20040;-74
2022/01/15 09:11:42;;;;;;;13.73;9.60;;;5.50;99.90;;;;;;5081001;28;20490;-74
2022/01/15 09:14:10;;;;;;;16.38;10.55;;;5.50;99.90;;;;;;5081295;28;20044;-75
2022/01/15 09:16:35;;;;;;;21.15;11.52;;;5.50;99.90;;;;;;5082247;28;20067;-74
2022/01/15 09:19:01;;;;;;;19.45;12.10;;;5.50;99.90;;;;;;5088237;28;20132;-75
2022/01/15 09:21:27;;;;;;;14.93;10.57;;;5.50;99.90;;;;;;5080390;28;20036;-74
2022/01/15 09:23:53;;;;;;;15.88;10.38;;;5.50;99.90;;;;;;5084212;28;20124;-74
2022/01/15 09:26:22;;;;;;;20.15;11.68;;;5.50;99.90;;;;;;5116447;27;20044;-75
2022/01/15 09:31:34;;;;;;;15.30;10.67;;;5.50;99.90;;;;;;5080168;28;20085;-74
2022/01/15 09:34:00;;;;;;;17.02;11.60;;;5.50;99.90;;;;;;5084913;28;20127;-74
2022/01/15 09:36:25;;;;;;;16.23;11.18;;;5.50;99.90;;;;;;5085416;28;20132;-75
2022/01/15 09:38:51;;;;;;;18.00;12.30;;;5.50;99.90;;;;;;5086958;28;20554;-75
2022/01/15 09:41:18;;;;;;;16.25;10.98;;;5.50;99.90;;;;;;5083022;28;20052;-75
2022/01/15 09:43:44;;;;;;;17.83;11.52;;;5.50;99.90;;;;;;5084830;28;20045;-75
2022/01/15 09:46:11;;;;;;;21.13;12.57;;;5.50;99.90;;;;;;5083050;28;20044;-74
2022/01/15 09:48:38;;;;;;;19.88;12.23;;;5.50;99.90;;;;;;5084137;28;20493;-74
2022/01/15 09:51:05;;;;;;;21.67;13.68;;;5.50;99.90;;;;;;5083320;28;20044;-74
2022/01/15 09:53:33;;;;;;;23.00;14.05;;;5.50;99.90;;;;;;5082165;28;20051;-74
2022/01/15 09:55:58;;;;;;;21.23;13.45;;;5.40;99.90;;;;;;5086339;28;20055;-74
2022/01/15 09:58:24;;;;;;;22.58;14.38;;;5.50;99.90;;;;;;5090835;28;20036;-74
2022/01/15 10:00:50;;;;;;;24.35;14.02;;;5.50;99.90;;;;;;5119785;27;20067;-75
2022/01/15 10:03:15;;;;;;;21.55;14.75;;;5.50;99.90;;;;;;5082444;28;20101;-75
2022/01/15 10:05:41;;;;;;;21.83;14.48;;;5.50;99.90;;;;;;5082962;28;20039;-74
2022/01/15 10:08:10;;;;;;;20.17;13.05;;;5.40;99.90;;;;;;5085584;28;20036;-75
2022/01/15 10:10:38;;;;;;;20.50;12.77;;;5.40;99.90;;;;;;5089198;28;20036;-75
2022/01/15 10:13:23;;;;;;;22.08;12.32;;;5.40;99.90;;;;;;5091279;28;20040;-74
2022/01/15 10:16:17;;;;;;;18.45;12.82;;;5.30;99.90;;;;;;5084322;28;20159;-74
2022/01/15 10:18:47;;;;;;;20.88;13.68;;;5.40;99.90;;;;;;5086232;28;20040;-74
2022/01/15 10:21:13;;;;;;;22.88;13.45;;;5.30;99.90;;;;;;5085419;28;20095;-74
2022/01/15 10:23:52;;;;;;;18.98;13.10;;;5.40;99.90;;;;;;5084451;28;20063;-74
2022/01/15 10:26:20;;;;;;;21.58;14.43;;;5.40;99.90;;;;;;5086523;28;20136;-74
2022/01/15 10:28:59;;;;;;;23.98;14.82;;;5.40;99.90;;;;;;5080823;28;20048;-74
2022/01/15 10:31:31;;;;;;;28.45;15.98;;;5.40;99.90;;;;;;5078321;28;20498;-74
2022/01/15 10:33:59;;;;;;;23.33;14.75;;;5.40;99.90;;;;;;5109539;27;20076;-75
2022/01/15 10:36:30;;;;;;;27.40;16.50;;;5.50;99.90;;;;;;5079390;28;20044;-74
2022/01/15 10:39:16;;;;;;;29.33;17.33;;;5.50;99.90;;;;;;5081324;28;20101;-74
2022/01/15 10:41:42;;;;;;;25.33;16.27;;;5.50;99.90;;;;;;5076658;28;20509;-74
2022/01/15 10:44:34;;;;;;;23.77;15.05;;;5.40;99.90;;;;;;5113669;27;20048;-74
2022/01/15 10:47:05;;;;;;;24.67;14.95;;;5.40;99.90;;;;;;5079759;28;20055;-74
2022/01/15 10:49:32;;;;;;;20.30;13.52;;;5.30;99.90;;;;;;5078163;28;20605;-74
2022/01/15 10:52:09;;;;;;;20.05;13.07;;;5.30;99.90;;;;;;5079088;28;20647;-72
2022/01/15 10:54:48;;;;;;;19.15;13.25;;;5.30;99.90;;;;;;5080500;28;20040;-72
2022/01/15 10:57:14;;;;;;;21.23;14.07;;;5.30;99.90;;;;;;5082552;28;20042;-72
2022/01/15 10:59:54;;;;;;;18.92;12.82;;;5.20;99.90;;;;;;5078699;28;20045;-72
2022/01/15 11:02:20;;;;;;;19.40;13.27;;;5.20;99.90;;;;;;5084397;28;20421;-72
2022/01/15 11:04:47;;;;;;;19.17;12.30;;;5.20;99.90;;;;;;5080532;28;20055;-72
2022/01/15 11:07:15;;;;;;;17.65;12.30;;;5.20;99.90;;;;;;5079073;28;20045;-72
2022/01/15 11:09:45;;;;;;;17.05;11.90;;;5.20;99.90;;;;;;5079384;28;20078;-72
2022/01/15 11:12:12;;;;;;;16.23;11.80;;;5.10;99.90;;;;;;5083559;28;20039;-73
2022/01/15 11:14:38;;;;;;;18.05;13.00;;;5.20;99.90;;;;;;5080262;28;20120;-72
2022/01/15 11:17:05;;;;;;;19.02;13.82;;;5.20;99.90;;;;;;5081250;28;20036;-72
2022/01/15 11:19:32;;;;;;;17.00;12.73;;;5.10;99.90;;;;;;5080565;28;20048;-72
2022/01/15 11:21:58;;;;;;;19.52;13.45;;;5.30;99.90;;;;;;5083103;28;20040;-72
2022/01/15 11:24:24;;;;;;;21.02;14.20;;;5.20;99.90;;;;;;5078801;28;20044;-72
2022/01/15 11:26:58;;;;;;;21.13;14.90;;;5.10;99.90;;;;;;5114050;27;20510;-72
2022/01/15 11:29:28;;;;;;;20.40;14.27;;;5.20;99.90;;;;;;5085394;28;20037;-72
2022/01/15 11:31:58;;;;;;;21.88;14.27;;;5.20;99.90;;;;;;5114108;27;20072;-72
2022/01/15 11:34:24;;;;;;;23.33;15.60;;;5.10;99.90;;;;;;5112986;27;20040;-72
2022/01/15 11:36:50;;;;;;;21.38;13.75;;;5.10;99.90;;;;;;5078444;28;20063;-72
2022/01/15 11:39:34;;;;;;;23.00;15.75;;;5.10;99.90;;;;;;5075982;28;20540;-72
2022/01/15 11:42:02;;;;;;;22.58;15.23;;;5.10;99.90;;;;;;5108395;27;20052;-72
2022/01/15 11:44:35;;;;;;;24.95;15.88;;;5.10;99.90;;;;;;5080309;28;20127;-72
2022/01/15 11:47:21;;;;;;;25.13;16.25;;;5.10;99.90;;;;;;5079410;28;20390;-72
2022/01/15 11:49:49;;;;;;;27.25;17.48;;;5.10;99.90;;;;;;5110840;27;20105;-72
2022/01/15 11:52:15;;;;;;;25.08;16.75;;;5.10;99.90;;;;;;5079303;28;20051;-72
2022/01/15 11:54:58;;;;;;;28.80;17.67;;;5.10;99.90;;;;;;5079320;28;20032;-72
2022/01/15 11:57:33;;;;;;;25.13;17.23;;;5.10;99.90;;;;;;5094474;28;20079;-72
2022/01/15 12:00:00;;;;;;;25.92;16.95;;;5.10;99.90;;;;;;5075886;28;20119;-72
2022/01/15 12:02:36;;;;;;;25.63;17.05;;;5.10;99.90;;;;;;5078877;28;20151;-72
2022/01/15 12:05:17;;;;;;;;;;;5.10;99.90;;;;;;5112654;27;20403;-72
2022/01/15 12:07:43;;;;;;;25.17;17.25;;;5.10;99.90;;;;;;5080973;28;19920;-72
2022/01/15 12:10:17;;;;;;;25.52;17.27;;;5.10;99.90;;;;;;5077834;28;20043;-72
2022/01/15 12:12:51;;;;;;;30.33;18.45;;;5.10;99.90;;;;;;5079398;28;20063;-73
2022/01/15 12:15:26;;;;;;;24.58;17.27;;;5.10;99.90;;;;;;5079381;28;20390;-72
2022/01/15 12:17:54;;;;;;;23.47;17.63;;;5.10;99.90;;;;;;5078945;28;20056;-72
2022/01/15 12:20:21;;;;;;;23.85;16.55;;;5.10;99.90;;;;;;5079469;28;20043;-72
2022/01/15 12:22:47;;;;;;;24.08;16.67;;;5.10;99.90;;;;;;5076642;28;20071;-72
2022/01/15 12:25:32;;;;;;;25.75;17.83;;;5.20;99.90;;;;;;5078985;28;20390;-72
2022/01/15 12:28:17;;;;;;;26.92;17.23;;;5.20;99.90;;;;;;5077955;28;20067;-72
2022/01/15 12:30:48;;;;;;;27.90;17.40;;;5.20;99.90;;;;;;5078102;28;20188;-73
2022/01/15 12:33:17;;;;;;;23.88;17.02;;;5.10;99.90;;;;;;5077364;28;20048;-72
2022/01/15 12:35:46;;;;;;;23.52;16.13;;;5.10;99.90;;;;;;5107819;27;20082;-72
2022/01/15 12:38:26;;;;;;;22.55;15.63;;;5.20;99.90;;;;;;5075333;28;20056;-73
2022/01/15 12:40:54;;;;;;;22.63;15.65;;;5.10;99.90;;;;;;5080843;28;20492;-73
2022/01/15 12:43:38;;;;;;;26.52;16.75;;;5.10;99.90;;;;;;5097159;27;20039;-72
2022/01/15 12:46:20;;;;;;;28.80;16.42;;;5.10;99.90;;;;;;5082966;28;20075;-72
2022/01/15 12:48:46;;;;;;;24.85;16.42;;;5.10;99.90;;;;;;5082809;28;20052;-72
2022/01/15 12:51:21;;;;;;;25.17;16.13;;;5.10;99.90;;;;;;5080294;28;20454;-75
2022/01/15 12:53:50;;;;;;;22.98;15.48;;;5.10;99.90;;;;;;5083995;28;20065;-74
2022/01/15 12:56:18;;;;;;;23.27;14.93;;;5.00;99.90;;;;;;5118538;27;20590;-74
2022/01/15 12:58:45;;;;;;;24.48;17.38;;;5.00;99.90;;;;;;5119045;27;20040;-74
2022/01/15 13:01:12;;;;;;;28.17;17.45;;;5.00;99.90;;;;;;5114654;27;20040;-74
2022/01/15 13:03:40;;;;;;;24.38;16.80;;;4.90;99.90;;;;;;5116931;27;20071;-74
2022/01/15 13:06:07;;;;;;;29.05;17.60;;;5.00;99.90;;;;;;5079779;28;20040;-74
2022/01/15 13:08:43;;;;;;;27.65;18.55;;;5.00;99.90;;;;;;5078223;28;20040;-74
2022/01/15 13:13:56;;;;;;;27.83;18.88;;;4.90;99.90;;;;;;5081686;28;20078;-73
2022/01/15 13:16:26;;;;;;;31.45;19.48;;;5.00;99.90;;;;;;5111365;27;20059;-76
2022/01/15 13:18:58;;;;;;;30.65;19.77;;;4.90;99.90;;;;;;5079185;28;20608;-74
2022/01/15 13:21:32;;;;;;;31.60;19.83;;;5.00;99.90;;;;;;5087528;28;20079;-73